createdAt,value
2018-10-05T00:02:09.203Z,14.51
2018-10-05T00:05:33.624Z,14.39
2018-10-05T00:08:58.033Z,14.48
2018-10-05T00:12:22.464Z,14.47
2018-10-05T00:15:46.971Z,14.52
2018-10-05T00:19:11.539Z,14.43
2018-10-05T00:22:36.119Z,14.50
2018-10-05T00:26:00.585Z,14.47
2018-10-05T00:29:25.002Z,14.36
2018-10-05T00:32:49.437Z,14.51
2018-10-05T00:36:13.859Z,14.58
2018-10-05T00:39:38.272Z,14.51
2018-10-05T00:43:02.641Z,14.44
2018-10-05T00:46:27.049Z,14.30
2018-10-05T00:49:51.460Z,14.31
2018-10-05T00:53:15.898Z,14.43
2018-10-05T00:56:40.434Z,14.53
2018-10-05T01:00:04.974Z,14.37
2018-10-05T01:03:29.415Z,14.50
2018-10-05T01:06:53.862Z,14.45
2018-10-05T01:10:18.276Z,14.47
2018-10-05T01:13:42.665Z,14.32
2018-10-05T01:17:07.127Z,14.39
2018-10-05T01:20:31.581Z,14.41
2018-10-05T01:23:56.033Z,14.54
2018-10-05T01:27:20.451Z,14.41
2018-10-05T01:30:44.890Z,14.46
2018-10-05T01:34:09.335Z,14.51
2018-10-05T01:37:33.760Z,14.42
2018-10-05T01:40:58.191Z,14.49
2018-10-05T01:44:22.616Z,14.35
2018-10-05T01:47:47.033Z,14.38
2018-10-05T01:51:11.473Z,14.33
2018-10-05T01:54:35.906Z,14.27
2018-10-05T01:58:00.344Z,14.39
2018-10-05T02:01:24.841Z,14.08
2018-10-05T02:04:49.284Z,14.20
2018-10-05T02:08:13.689Z,14.19
2018-10-05T02:11:38.145Z,14.18
2018-10-05T02:15:02.573Z,14.16
2018-10-05T02:18:27.025Z,14.13
2018-10-05T02:21:51.570Z,13.97
2018-10-05T02:25:16.036Z,14.02
2018-10-05T02:28:40.409Z,14.08
2018-10-05T02:32:04.814Z,13.83
2018-10-05T02:35:29.211Z,13.94
2018-10-05T02:38:53.669Z,13.93
2018-10-05T02:42:18.078Z,13.94
2018-10-05T02:45:42.517Z,13.81
2018-10-05T02:49:07.153Z,13.92
2018-10-05T02:52:31.567Z,13.80
2018-10-05T02:55:56.004Z,13.89
2018-10-05T02:59:20.398Z,13.89
2018-10-05T03:02:44.888Z,13.89
2018-10-05T03:06:09.290Z,13.74
2018-10-05T03:09:33.723Z,13.85
2018-10-05T03:12:58.188Z,13.79
2018-10-05T03:16:22.610Z,13.79
2018-10-05T03:19:47.120Z,13.77
2018-10-05T03:23:11.483Z,13.77
2018-10-05T03:26:35.905Z,13.64
2018-10-05T03:30:00.347Z,13.65
2018-10-05T03:33:24.768Z,13.72
2018-10-05T03:36:49.174Z,13.72
2018-10-05T03:40:13.617Z,13.65
2018-10-05T03:43:38.031Z,13.58
2018-10-05T03:47:02.498Z,13.74
2018-10-05T03:50:27.037Z,13.63
2018-10-05T03:53:51.461Z,13.59
2018-10-05T03:57:15.901Z,13.72
2018-10-05T04:00:40.364Z,13.61
2018-10-05T04:04:04.785Z,13.64
2018-10-05T04:07:29.219Z,13.61
2018-10-05T04:10:53.622Z,13.45
2018-10-05T04:14:18.223Z,13.37
2018-10-05T04:17:42.702Z,13.49
2018-10-05T04:21:07.128Z,13.44
2018-10-05T04:24:31.542Z,13.44
2018-10-05T04:27:56.011Z,13.40
2018-10-05T04:31:20.447Z,13.32
2018-10-05T04:34:45.025Z,13.26
2018-10-05T04:38:09.444Z,13.20
2018-10-05T04:41:33.871Z,13.07
2018-10-05T04:44:58.346Z,12.96
2018-10-05T04:48:22.740Z,12.76
2018-10-05T04:51:47.178Z,12.52
2018-10-05T04:55:11.654Z,12.59
2018-10-05T04:58:36.101Z,12.42
2018-10-05T05:02:00.718Z,12.41
2018-10-05T05:05:25.153Z,12.39
2018-10-05T05:08:49.576Z,12.36
2018-10-05T05:12:14.038Z,12.42
2018-10-05T05:15:38.422Z,12.73
2018-10-05T05:19:02.886Z,12.65
2018-10-05T05:22:27.400Z,12.86
2018-10-05T05:25:51.824Z,12.85
2018-10-05T05:29:16.304Z,12.96
2018-10-05T05:32:40.742Z,12.95
2018-10-05T05:36:05.236Z,12.85
2018-10-05T05:39:29.625Z,12.95
2018-10-05T05:42:53.989Z,13.09
2018-10-05T05:46:18.762Z,13.09
2018-10-05T05:49:43.195Z,13.08
2018-10-05T05:53:07.650Z,13.07
2018-10-05T05:56:32.082Z,13.02
2018-10-05T05:59:56.473Z,12.90
2018-10-05T06:03:20.890Z,13.14
2018-10-05T06:06:45.295Z,13.15
2018-10-05T06:10:09.744Z,13.09
2018-10-05T06:13:34.182Z,13.01
2018-10-05T06:16:58.829Z,13.16
2018-10-05T06:20:23.256Z,13.30
2018-10-05T06:23:47.667Z,13.22
2018-10-05T06:27:12.086Z,13.22
2018-10-05T06:30:36.531Z,13.38
2018-10-05T06:34:00.961Z,13.49
2018-10-05T06:37:28.383Z,13.56
2018-10-05T06:40:52.900Z,13.45
2018-10-05T06:44:17.279Z,13.67
2018-10-05T06:47:41.684Z,13.70
2018-10-05T06:51:06.181Z,13.79
2018-10-05T06:54:30.604Z,13.81
2018-10-05T06:57:55.006Z,14.04
2018-10-05T07:01:19.581Z,14.05
2018-10-05T07:04:44.003Z,14.09
2018-10-05T07:08:08.456Z,14.12
2018-10-05T07:11:32.886Z,14.17
2018-10-05T07:14:57.262Z,14.28
2018-10-05T07:18:21.696Z,14.42
2018-10-05T07:21:46.174Z,14.43
2018-10-05T07:25:10.610Z,14.54
2018-10-05T07:28:35.126Z,14.65
2018-10-05T07:31:59.417Z,14.79
2018-10-05T07:35:23.847Z,15.01
2018-10-05T07:38:48.274Z,15.10
2018-10-05T07:42:12.729Z,15.19
2018-10-05T07:45:37.143Z,15.27
2018-10-05T07:49:01.574Z,15.44
2018-10-05T07:52:26.030Z,15.56
2018-10-05T07:55:50.430Z,15.68
2018-10-05T07:59:14.878Z,15.76
2018-10-05T08:02:39.383Z,15.70
2018-10-05T08:06:03.884Z,15.87
2018-10-05T08:09:28.346Z,16.01
2018-10-05T08:12:52.751Z,16.19
2018-10-05T08:16:17.170Z,16.13
2018-10-05T08:19:41.631Z,16.02
2018-10-05T08:23:06.043Z,16.27
2018-10-05T08:26:30.508Z,16.33
2018-10-05T08:29:54.932Z,16.29
2018-10-05T08:33:19.341Z,16.42
2018-10-05T08:36:43.756Z,16.39
2018-10-05T08:40:09.256Z,16.66
2018-10-05T08:43:33.634Z,16.80
2018-10-05T08:46:58.107Z,16.88
2018-10-05T08:50:22.527Z,17.14
2018-10-05T08:53:46.919Z,17.22
2018-10-05T08:57:11.304Z,17.51
2018-10-05T09:00:35.850Z,17.67
2018-10-05T09:04:00.152Z,17.75
2018-10-05T09:07:24.833Z,17.90
2018-10-05T09:10:50.125Z,17.95
2018-10-05T09:14:14.527Z,18.00
2018-10-05T09:17:39.021Z,18.43
2018-10-05T09:21:03.432Z,18.61
2018-10-05T09:24:27.903Z,18.94
2018-10-05T09:27:52.311Z,19.51
2018-10-05T09:31:16.738Z,19.93
2018-10-05T09:34:41.169Z,20.90
2018-10-05T09:38:05.615Z,21.71
2018-10-05T09:41:30.028Z,23.95
2018-10-05T09:44:54.428Z,26.13
2018-10-05T09:48:18.880Z,26.28
2018-10-05T09:51:43.350Z,27.44
2018-10-05T09:55:07.733Z,28.59
2018-10-05T09:58:32.203Z,28.57
2018-10-05T10:02:01.958Z,29.65
2018-10-05T10:05:26.388Z,30.44
2018-10-05T10:08:50.792Z,29.96
2018-10-05T10:12:15.226Z,30.90
2018-10-05T10:15:39.638Z,30.59
2018-10-05T10:19:04.063Z,31.24
2018-10-05T10:22:28.504Z,32.09
2018-10-05T10:25:52.895Z,31.74
2018-10-05T10:29:17.445Z,31.86
2018-10-05T10:32:41.768Z,32.27
2018-10-05T10:36:06.388Z,30.62
2018-10-05T10:39:30.798Z,30.45
2018-10-05T10:42:55.223Z,29.76
2018-10-05T10:46:19.630Z,29.90
2018-10-05T10:49:44.021Z,31.19
2018-10-05T10:53:08.525Z,30.53
2018-10-05T10:56:32.965Z,31.43
2018-10-05T10:59:57.380Z,30.81
2018-10-05T11:03:21.789Z,31.13
2018-10-05T11:06:46.313Z,32.02
2018-10-05T11:10:10.698Z,32.76
2018-10-05T11:13:35.164Z,32.38
2018-10-05T11:16:59.729Z,31.99
2018-10-05T11:20:24.129Z,31.83
2018-10-05T11:23:48.611Z,33.52
2018-10-05T11:27:13.059Z,33.64
2018-10-05T11:30:37.684Z,32.95
2018-10-05T11:34:02.105Z,33.38
2018-10-05T11:37:26.517Z,34.36
2018-10-05T11:40:51.060Z,33.58
2018-10-05T11:44:15.426Z,34.07
2018-10-05T11:47:39.792Z,33.28
2018-10-05T11:51:04.248Z,33.73
2018-10-05T11:54:28.699Z,33.79
2018-10-05T11:57:53.151Z,35.19
2018-10-05T12:01:17.631Z,35.56
2018-10-05T12:04:42.054Z,34.43
2018-10-05T12:08:06.498Z,35.90
2018-10-05T12:11:30.946Z,36.77
2018-10-05T12:14:55.381Z,36.67
2018-10-05T12:18:19.894Z,36.53
2018-10-05T12:21:44.320Z,37.24
2018-10-05T12:25:08.833Z,37.56
2018-10-05T12:28:33.218Z,38.48
2018-10-05T12:31:57.787Z,40.78
2018-10-05T12:35:22.231Z,40.37
2018-10-05T12:38:46.673Z,41.50
2018-10-05T12:42:11.302Z,40.96
2018-10-05T12:45:35.716Z,39.82
2018-10-05T12:49:00.137Z,40.88
2018-10-05T12:52:24.736Z,40.47
2018-10-05T12:55:49.495Z,40.58
2018-10-05T12:59:13.890Z,43.50
2018-10-05T13:02:38.265Z,42.79
2018-10-05T13:06:02.701Z,43.59
2018-10-05T13:09:27.121Z,43.85
2018-10-05T13:12:51.622Z,41.43
2018-10-05T13:16:15.963Z,39.59
2018-10-05T13:19:40.398Z,40.09
2018-10-05T13:23:04.771Z,41.71
2018-10-05T13:26:29.191Z,42.10
2018-10-05T13:29:53.643Z,42.03
2018-10-05T13:33:18.089Z,42.76
2018-10-05T13:36:42.524Z,41.46
2018-10-05T13:40:06.980Z,39.26
2018-10-05T13:43:31.495Z,39.83
2018-10-05T13:46:55.941Z,41.40
2018-10-05T13:50:20.336Z,39.59
2018-10-05T13:53:44.744Z,39.68
2018-10-05T13:57:09.145Z,39.01
2018-10-05T14:00:33.559Z,39.63
2018-10-05T14:03:57.953Z,39.60
2018-10-05T14:07:22.345Z,37.95
2018-10-05T14:10:46.728Z,39.72
2018-10-05T14:14:11.097Z,38.35
2018-10-05T14:17:35.543Z,39.08
2018-10-05T14:21:00.023Z,37.74
2018-10-05T14:24:24.459Z,38.07
2018-10-05T14:27:48.956Z,37.13
2018-10-05T14:31:13.376Z,39.51
2018-10-05T14:34:37.798Z,38.31
2018-10-05T14:38:02.261Z,37.80
2018-10-05T14:41:26.639Z,36.82
2018-10-05T14:44:51.060Z,37.07
2018-10-05T14:48:15.455Z,37.38
2018-10-05T14:51:39.849Z,36.60
2018-10-05T14:55:04.325Z,36.93
2018-10-05T14:58:28.761Z,37.46
2018-10-05T15:01:53.165Z,38.67
2018-10-05T15:05:17.586Z,37.77
2018-10-05T15:08:42.016Z,37.65
2018-10-05T15:12:06.459Z,38.66
2018-10-05T15:15:30.938Z,38.57
2018-10-05T15:18:55.367Z,38.40
2018-10-05T15:22:19.839Z,40.45
2018-10-05T15:25:44.252Z,41.81
2018-10-05T15:29:08.730Z,41.70
2018-10-05T15:32:33.131Z,42.20
2018-10-05T15:35:57.575Z,43.04
2018-10-05T15:39:21.971Z,42.95
2018-10-05T15:42:46.401Z,43.07
2018-10-05T15:46:11.704Z,41.32
2018-10-05T15:49:36.612Z,42.65
2018-10-05T15:53:01.124Z,37.15
2018-10-05T15:56:25.463Z,37.31
2018-10-05T15:59:50.077Z,34.63
2018-10-05T16:03:14.471Z,33.31
2018-10-05T16:06:38.937Z,31.68
2018-10-05T16:10:03.437Z,30.86
2018-10-05T16:13:27.842Z,29.80
2018-10-05T16:16:52.261Z,28.95
2018-10-05T16:20:16.725Z,28.60
2018-10-05T16:23:41.891Z,28.52
2018-10-05T16:27:06.404Z,28.25
2018-10-05T16:30:30.825Z,28.04
2018-10-05T16:33:55.363Z,27.82
2018-10-05T16:37:19.804Z,26.99
2018-10-05T16:40:44.210Z,27.02
2018-10-05T16:44:08.607Z,26.89
2018-10-05T16:47:34.451Z,26.36
2018-10-05T16:50:58.912Z,26.34
2018-10-05T16:54:23.346Z,25.70
2018-10-05T16:57:48.048Z,25.86
2018-10-05T17:01:13.108Z,25.44
2018-10-05T17:04:37.972Z,24.90
2018-10-05T17:08:02.981Z,25.12
2018-10-05T17:11:27.970Z,24.28
2018-10-05T17:14:52.417Z,24.06
2018-10-05T17:18:17.009Z,23.71
2018-10-05T17:21:42.068Z,23.83
2018-10-05T17:25:07.490Z,23.77
2018-10-05T17:28:32.594Z,23.41
2018-10-05T17:31:57.499Z,23.00
2018-10-05T17:35:22.212Z,22.87
2018-10-05T17:38:46.895Z,22.79
2018-10-05T17:42:11.379Z,22.49
2018-10-05T17:45:36.420Z,22.23
2018-10-05T17:49:01.701Z,22.05
2018-10-05T17:52:26.519Z,22.03
2018-10-05T17:55:51.978Z,21.83
2018-10-05T17:59:19.465Z,21.84
2018-10-05T18:02:46.782Z,21.62
2018-10-05T18:06:11.574Z,21.29
2018-10-05T18:09:36.644Z,21.33
2018-10-05T18:13:02.092Z,21.57
2018-10-05T18:16:26.515Z,21.82
2018-10-05T18:19:51.013Z,22.16
2018-10-05T18:23:15.455Z,22.43
2018-10-05T18:26:39.941Z,22.43
2018-10-05T18:30:04.440Z,22.54
2018-10-05T18:33:28.854Z,22.52
2018-10-05T18:36:53.830Z,22.45
2018-10-05T18:40:18.365Z,22.36
2018-10-05T18:43:42.830Z,22.10
2018-10-05T18:47:09.204Z,22.03
2018-10-05T18:50:34.187Z,21.95
2018-10-05T18:53:59.541Z,22.12
2018-10-05T18:57:24.782Z,21.99
2018-10-05T19:00:50.152Z,21.78
2018-10-05T19:04:14.971Z,22.06
2018-10-05T19:07:40.134Z,21.95
2018-10-05T19:11:04.823Z,21.75
2018-10-05T19:14:29.499Z,21.62
2018-10-05T19:17:54.236Z,21.58
2018-10-05T19:21:19.276Z,21.58
2018-10-05T19:24:43.971Z,21.33
2018-10-05T19:28:08.510Z,21.63
2018-10-05T19:31:33.596Z,21.62
2018-10-05T19:34:58.102Z,21.18
2018-10-05T19:38:22.614Z,21.20
2018-10-05T19:41:47.220Z,20.92
2018-10-05T19:45:11.847Z,21.06
2018-10-05T19:48:36.245Z,21.01
2018-10-05T19:52:00.653Z,20.89
2018-10-05T19:55:25.062Z,20.89
2018-10-05T19:58:49.484Z,20.69
2018-10-05T20:02:13.949Z,20.68
2018-10-05T20:05:38.330Z,20.70
2018-10-05T20:09:02.795Z,20.72
2018-10-05T20:12:27.270Z,20.59
2018-10-05T20:15:51.762Z,20.55
2018-10-05T20:19:16.240Z,20.55
2018-10-05T20:22:40.736Z,20.47
2018-10-05T20:26:05.195Z,20.39
2018-10-05T20:29:29.656Z,20.37
2018-10-05T20:32:54.088Z,20.27
2018-10-05T20:36:18.649Z,20.23
2018-10-05T20:39:42.979Z,20.18
2018-10-05T20:43:07.750Z,20.12
2018-10-05T20:46:32.216Z,19.89
2018-10-05T20:49:57.204Z,20.12
2018-10-05T20:53:22.115Z,19.96
2018-10-05T20:56:46.582Z,19.95
2018-10-05T21:00:11.015Z,19.69
2018-10-05T21:03:35.416Z,19.78
2018-10-05T21:07:00.612Z,19.67
2018-10-05T21:10:25.133Z,19.71
2018-10-05T21:13:49.768Z,19.61
2018-10-05T21:17:14.743Z,19.46
2018-10-05T21:20:39.547Z,19.45
2018-10-05T21:24:04.349Z,19.36
2018-10-05T21:27:28.998Z,19.22
2018-10-05T21:30:53.714Z,19.29
2018-10-05T21:34:18.175Z,19.28
2018-10-05T21:37:42.645Z,19.26
2018-10-05T21:41:07.351Z,19.13
2018-10-05T21:44:31.825Z,19.21
2018-10-05T21:47:56.295Z,18.91
2018-10-05T21:51:20.694Z,18.86
2018-10-05T21:54:45.068Z,19.07
2018-10-05T21:58:09.502Z,19.03
2018-10-05T22:01:33.971Z,18.71
2018-10-05T22:04:58.370Z,18.87
2018-10-05T22:08:22.768Z,18.80
2018-10-05T22:11:47.262Z,18.63
2018-10-05T22:15:11.646Z,18.54
2018-10-05T22:18:36.060Z,18.62
2018-10-05T22:22:00.549Z,18.64
2018-10-05T22:25:25.021Z,18.45
2018-10-05T22:28:49.457Z,18.45
2018-10-05T22:32:13.872Z,18.33
2018-10-05T22:35:38.476Z,18.44
2018-10-05T22:39:02.959Z,18.36
2018-10-05T22:42:27.417Z,18.03
2018-10-05T22:45:51.992Z,17.93
2018-10-05T22:49:16.685Z,18.15
2018-10-05T22:52:41.151Z,18.15
2018-10-05T22:56:05.594Z,17.92
2018-10-05T22:59:30.172Z,17.91
2018-10-05T23:02:54.632Z,17.97
2018-10-05T23:06:19.102Z,17.87
2018-10-05T23:09:43.501Z,17.34
2018-10-05T23:13:07.975Z,17.63
2018-10-05T23:16:32.692Z,17.38
2018-10-05T23:19:57.304Z,17.42
2018-10-05T23:23:21.735Z,17.38
2018-10-05T23:26:46.148Z,17.36
2018-10-05T23:30:10.580Z,17.36
2018-10-05T23:33:35.023Z,17.52
2018-10-05T23:36:59.446Z,17.44
2018-10-05T23:40:23.873Z,16.89
2018-10-05T23:43:48.290Z,17.00
2018-10-05T23:47:12.689Z,17.03
2018-10-05T23:50:37.137Z,16.75
2018-10-05T23:54:01.552Z,16.86
2018-10-05T23:57:25.995Z,16.69
